PWSweather.com
Personal Weather Stations
Station Observations
ISTOCKPO4
Cheadle HulmeGB SK8 6NZ

Cheadle HulmeGB SK8 6NZ

Lat: 53.363783, Lon: -2.1948438

Elevation: 261

Station Type: Davis VP2 with Daytime FARS

http://www.cheadlehulmeweather.co.uk

High Low Average
Temperature 55.9°F13.3°F 50.4°F10.2°F 53.2°F11.8°F
Dew Point 54.5°F12.5°F 46.6°F8.1°F 50.8°F10.4°F
Winds 13.0 mph SSE20.9 mph SSE Calm Calm 4.8 mph 7.7 mph
Wind Gusts 24.0 mph38.6 mph -- 10.1 mph16.3 mph
Humidity 96% 83% 91%
Pressure 29.69 in1005.40 in 29.35 in993.90 in -
Precipitation 0.55 in14.00 in - -
Hour Temp Dew Point Humidity Winds Wind Gusts Pressure Precip Precip Rate Daily Precip Total
12:00 AM 55.9°F13.3°C 53.6°F12.0°C 92% 4.0 mph SE6.4 kmh SE 8.0 mph12.9 kmh 29.36 in994.2 mb 0.03 in0.8 mm 0.00 in0.0 mm 0.03 in0.8 mm
12:15 AM 55.9°F13.3°C 53.9°F12.2°C 93% 4.0 mph SE6.4 kmh SE 9.0 mph14.5 kmh 29.35 in993.9 mb 0.03 in0.8 mm 0.00 in0.0 mm 0.03 in0.8 mm
12:30 AM 55.6°F13.1°C 53.6°F12.0°C 93% 3.0 mph SSE4.8 kmh SSE 6.0 mph9.7 kmh 29.36 in994.2 mb 0.02 in0.5 mm 0.00 in0.0 mm 0.03 in0.8 mm
12:45 AM 55.0°F12.8°C 53.1°F11.7°C 93% 3.0 mph SSE4.8 kmh SSE 6.0 mph9.7 kmh 29.36 in994.2 mb 0.00 in0.0 mm 0.00 in0.0 mm 0.03 in0.8 mm
01:00 AM 54.7°F12.6°C 52.4°F11.3°C 92% 4.0 mph S6.4 kmh S 10.0 mph16.1 kmh 29.36 in994.2 mb 0.00 in0.0 mm 0.00 in0.0 mm 0.03 in0.8 mm
01:15 AM 54.3°F12.4°C 52.3°F11.3°C 93% 2.0 mph SSE3.2 kmh SSE 5.0 mph8.0 kmh 29.36 in994.2 mb 0.00 in0.0 mm 0.00 in0.0 mm 0.03 in0.8 mm
01:30 AM 54.1°F12.3°C 52.2°F11.2°C 93% 3.0 mph S4.8 kmh S 8.0 mph12.9 kmh 29.36 in994.2 mb 0.00 in0.0 mm 0.00 in0.0 mm 0.03 in0.8 mm
01:45 AM 54.1°F12.3°C 52.2°F11.2°C 93% 1.0 mph SE1.6 kmh SE 4.0 mph6.4 kmh 29.36 in994.2 mb 0.00 in0.0 mm 0.00 in0.0 mm 0.03 in0.8 mm
02:00 AM 54.1°F12.3°C 52.2°F11.2°C 93% 1.0 mph SE1.6 kmh SE 3.0 mph4.8 kmh 29.36 in994.2 mb 0.00 in0.0 mm 0.00 in0.0 mm 0.03 in0.8 mm
02:15 AM 54.0°F12.2°C 52.0°F11.1°C 93% 2.0 mph SSE3.2 kmh SSE 3.0 mph4.8 kmh 29.36 in994.2 mb 0.00 in0.0 mm 0.00 in0.0 mm 0.03 in0.8 mm
02:30 AM 53.8°F12.1°C 51.8°F11.0°C 93% 1.0 mph SSE1.6 kmh SSE 3.0 mph4.8 kmh 29.36 in994.2 mb 0.00 in0.0 mm 0.00 in0.0 mm 0.03 in0.8 mm
02:45 AM 53.2°F11.8°C 51.3°F10.7°C 93% 1.0 mph SE1.6 kmh SE 3.0 mph4.8 kmh 29.37 in994.6 mb 0.00 in0.0 mm 0.00 in0.0 mm 0.03 in0.8 mm
03:00 AM 52.9°F11.6°C 50.9°F10.5°C 93% 1.0 mph SE1.6 kmh SE 3.0 mph4.8 kmh 29.37 in994.6 mb 0.00 in0.0 mm 0.00 in0.0 mm 0.03 in0.8 mm
03:15 AM 52.3°F11.3°C 50.4°F10.2°C 93% 1.0 mph SE1.6 kmh SE 3.0 mph4.8 kmh 29.37 in994.6 mb 0.00 in0.0 mm 0.00 in0.0 mm 0.03 in0.8 mm
03:30 AM 51.8°F11.0°C 49.8°F9.9°C 93% Calm Calm -- 29.38 in994.9 mb 0.00 in0.0 mm 0.00 in0.0 mm 0.03 in0.8 mm
03:45 AM 51.4°F10.8°C 49.8°F9.9°C 94% 1.0 mph SE1.6 kmh SE 2.0 mph3.2 kmh 29.38 in994.9 mb 0.00 in0.0 mm 0.00 in0.0 mm 0.03 in0.8 mm
04:00 AM 51.1°F10.6°C 49.4°F9.7°C 94% 1.0 mph SE1.6 kmh SE 2.0 mph3.2 kmh 29.39 in995.3 mb 0.00 in0.0 mm 0.00 in0.0 mm 0.03 in0.8 mm
04:15 AM 51.3°F10.7°C 49.6°F9.8°C 94% Calm Calm 2.0 mph3.2 kmh 29.40 in995.6 mb 0.00 in0.0 mm 0.00 in0.0 mm 0.03 in0.8 mm
04:30 AM 51.3°F10.7°C 49.6°F9.8°C 94% Calm Calm -- 29.40 in995.6 mb 0.00 in0.0 mm 0.00 in0.0 mm 0.03 in0.8 mm
04:45 AM 51.4°F10.8°C 49.8°F9.9°C 94% 1.0 mph SE1.6 kmh SE 2.0 mph3.2 kmh 29.41 in995.9 mb 0.00 in0.0 mm 0.00 in0.0 mm 0.03 in0.8 mm
05:00 AM 51.3°F10.7°C 49.9°F9.9°C 95% 1.0 mph SE1.6 kmh SE 3.0 mph4.8 kmh 29.41 in995.9 mb 0.00 in0.0 mm 0.00 in0.0 mm 0.03 in0.8 mm
05:15 AM 50.5°F10.3°C 48.9°F9.4°C 94% 1.0 mph SE1.6 kmh SE 2.0 mph3.2 kmh 29.43 in996.6 mb 0.00 in0.0 mm 0.00 in0.0 mm 0.03 in0.8 mm
05:30 AM 50.5°F10.3°C 49.2°F9.6°C 95% 1.0 mph SE1.6 kmh SE 2.0 mph3.2 kmh 29.43 in996.6 mb 0.00 in0.0 mm 0.00 in0.0 mm 0.03 in0.8 mm
05:45 AM 51.1°F10.6°C 49.7°F9.8°C 95% 1.0 mph SSE1.6 kmh SSE 3.0 mph4.8 kmh 29.44 in997.0 mb 0.00 in0.0 mm 0.00 in0.0 mm 0.03 in0.8 mm
06:00 AM 51.4°F10.8°C 50.1°F10.1°C 95% 2.0 mph S3.2 kmh S 6.0 mph9.7 kmh 29.45 in997.3 mb 0.00 in0.0 mm 0.00 in0.0 mm 0.03 in0.8 mm
06:15 AM 51.6°F10.9°C 50.2°F10.1°C 95% 2.0 mph S3.2 kmh S 6.0 mph9.7 kmh 29.45 in997.3 mb 0.00 in0.0 mm 0.00 in0.0 mm 0.03 in0.8 mm
06:30 AM 52.0°F11.1°C 50.6°F10.3°C 95% 2.0 mph S3.2 kmh S 4.0 mph6.4 kmh 29.45 in997.3 mb 0.00 in0.0 mm 0.00 in0.0 mm 0.03 in0.8 mm
06:45 AM 52.2°F11.2°C 50.8°F10.4°C 95% 3.0 mph S4.8 kmh S 5.0 mph8.0 kmh 29.46 in997.6 mb 0.00 in0.0 mm 0.00 in0.0 mm 0.03 in0.8 mm
07:00 AM 52.2°F11.2°C 50.8°F10.4°C 95% 2.0 mph SSW3.2 kmh SSW 6.0 mph9.7 kmh 29.48 in998.3 mb 0.00 in0.0 mm 0.00 in0.0 mm 0.03 in0.8 mm
07:15 AM 52.3°F11.3°C 51.0°F10.6°C 95% 2.0 mph SW3.2 kmh SW 6.0 mph9.7 kmh 29.49 in998.6 mb 0.01 in0.3 mm 0.04 in1.0 mm 0.04 in1.0 mm
07:30 AM 52.3°F11.3°C 51.0°F10.6°C 95% 1.0 mph SW1.6 kmh SW 3.0 mph4.8 kmh 29.50 in999.0 mb 0.04 in1.0 mm 0.12 in3.0 mm 0.07 in1.8 mm
07:45 AM 52.5°F11.4°C 51.1°F10.6°C 95% 2.0 mph SW3.2 kmh SW 4.0 mph6.4 kmh 29.51 in999.3 mb 0.06 in1.5 mm 0.08 in2.0 mm 0.09 in2.3 mm
08:00 AM 52.7°F11.5°C 51.6°F10.9°C 96% 2.0 mph WSW3.2 kmh WSW 4.0 mph6.4 kmh 29.52 in999.7 mb 0.08 in2.0 mm 0.03 in0.8 mm 0.11 in2.8 mm
08:15 AM 53.2°F11.8°C 51.8°F11.0°C 95% 3.0 mph W4.8 kmh W 8.0 mph12.9 kmh 29.52 in999.7 mb 0.07 in1.8 mm 0.00 in0.0 mm 0.11 in2.8 mm
08:30 AM 54.0°F12.2°C 52.8°F11.6°C 96% 5.0 mph W8.0 kmh W 9.0 mph14.5 kmh 29.53 in1000.0 mb 0.05 in1.3 mm 0.00 in0.0 mm 0.12 in3.0 mm
08:45 AM 54.5°F12.5°C 53.4°F11.9°C 96% 6.0 mph W9.7 kmh W 10.0 mph16.1 kmh 29.54 in1000.3 mb 0.03 in0.8 mm 0.00 in0.0 mm 0.12 in3.0 mm
09:00 AM 54.9°F12.7°C 53.7°F12.1°C 96% 6.0 mph W9.7 kmh W 12.0 mph19.3 kmh 29.55 in1000.7 mb 0.01 in0.3 mm 0.00 in0.0 mm 0.12 in3.0 mm
09:15 AM 55.0°F12.8°C 53.9°F12.2°C 96% 5.0 mph W8.0 kmh W 13.0 mph20.9 kmh 29.56 in1001.0 mb 0.01 in0.3 mm 0.00 in0.0 mm 0.12 in3.0 mm
09:30 AM 55.4°F13.0°C 54.3°F12.4°C 96% 5.0 mph W8.0 kmh W 12.0 mph19.3 kmh 29.56 in1001.0 mb 0.00 in0.0 mm 0.00 in0.0 mm 0.12 in3.0 mm
09:45 AM 55.6°F13.1°C 54.5°F12.5°C 96% 7.0 mph W11.3 kmh W 13.0 mph20.9 kmh 29.57 in1001.4 mb 0.00 in0.0 mm 0.00 in0.0 mm 0.12 in3.0 mm
10:00 AM 55.2°F12.9°C 54.1°F12.3°C 96% 9.0 mph WNW14.5 kmh WNW 19.0 mph30.6 kmh 29.58 in1001.7 mb 0.00 in0.0 mm 0.00 in0.0 mm 0.12 in3.0 mm
10:15 AM 55.0°F12.8°C 53.6°F12.0°C 95% 6.0 mph W9.7 kmh W 12.0 mph19.3 kmh 29.59 in1002.0 mb 0.00 in0.0 mm 0.00 in0.0 mm 0.12 in3.0 mm
10:30 AM 54.9°F12.7°C 53.5°F11.9°C 95% 8.0 mph W12.9 kmh W 18.0 mph29.0 kmh 29.60 in1002.4 mb 0.00 in0.0 mm 0.00 in0.0 mm 0.12 in3.0 mm
10:45 AM 54.7°F12.6°C 53.3°F11.8°C 95% 8.0 mph W12.9 kmh W 15.0 mph24.1 kmh 29.61 in1002.7 mb 0.00 in0.0 mm 0.00 in0.0 mm 0.12 in3.0 mm
11:00 AM 54.3°F12.4°C 52.9°F11.6°C 95% 8.0 mph W12.9 kmh W 17.0 mph27.4 kmh 29.62 in1003.0 mb 0.00 in0.0 mm 0.00 in0.0 mm 0.12 in3.0 mm
11:15 AM 54.1°F12.3°C 52.7°F11.5°C 95% 8.0 mph W12.9 kmh W 18.0 mph29.0 kmh 29.63 in1003.4 mb 0.01 in0.3 mm 0.04 in1.0 mm 0.13 in3.3 mm
11:30 AM 54.0°F12.2°C 52.6°F11.4°C 95% 6.0 mph W9.7 kmh W 16.0 mph25.7 kmh 29.64 in1003.7 mb 0.01 in0.3 mm 0.00 in0.0 mm 0.13 in3.3 mm
11:45 AM 54.1°F12.3°C 52.7°F11.5°C 95% 7.0 mph W11.3 kmh W 16.0 mph25.7 kmh 29.64 in1003.7 mb 0.01 in0.3 mm 0.00 in0.0 mm 0.13 in3.3 mm
12:00 PM 55.6°F13.1°C 54.2°F12.3°C 95% 5.0 mph WNW8.0 kmh WNW 10.0 mph16.1 kmh 29.64 in1003.7 mb 0.01 in0.3 mm 0.00 in0.0 mm 0.13 in3.3 mm
12:15 PM 55.4°F13.0°C 53.4°F11.9°C 93% 6.0 mph W9.7 kmh W 13.0 mph20.9 kmh 29.65 in1004.1 mb 0.00 in0.0 mm 0.00 in0.0 mm 0.13 in3.3 mm
12:30 PM 54.9°F12.7°C 52.6°F11.4°C 92% 6.0 mph WSW9.7 kmh WSW 15.0 mph24.1 kmh 29.65 in1004.1 mb 0.00 in0.0 mm 0.00 in0.0 mm 0.13 in3.3 mm
12:45 PM 54.9°F12.7°C 52.6°F11.4°C 92% 5.0 mph WSW8.0 kmh WSW 13.0 mph20.9 kmh 29.66 in1004.4 mb 0.00 in0.0 mm 0.00 in0.0 mm 0.13 in3.3 mm
01:00 PM 54.3°F12.4°C 52.0°F11.1°C 92% 5.0 mph WSW8.0 kmh WSW 12.0 mph19.3 kmh 29.66 in1004.4 mb 0.00 in0.0 mm 0.00 in0.0 mm 0.13 in3.3 mm
01:15 PM 54.3°F12.4°C 52.0°F11.1°C 92% 5.0 mph WSW8.0 kmh WSW 10.0 mph16.1 kmh 29.66 in1004.4 mb 0.00 in0.0 mm 0.00 in0.0 mm 0.13 in3.3 mm
01:30 PM 54.5°F12.5°C 51.9°F11.1°C 91% 5.0 mph WSW8.0 kmh WSW 12.0 mph19.3 kmh 29.66 in1004.4 mb 0.00 in0.0 mm 0.00 in0.0 mm 0.13 in3.3 mm
01:45 PM 54.3°F12.4°C 51.4°F10.8°C 90% 5.0 mph WNW8.0 kmh WNW 11.0 mph17.7 kmh 29.66 in1004.4 mb 0.00 in0.0 mm 0.00 in0.0 mm 0.13 in3.3 mm
02:00 PM 54.5°F12.5°C 51.6°F10.9°C 90% 3.0 mph W4.8 kmh W 7.0 mph11.3 kmh 29.67 in1004.7 mb 0.00 in0.0 mm 0.00 in0.0 mm 0.13 in3.3 mm
02:15 PM 54.9°F12.7°C 52.0°F11.1°C 90% 3.0 mph WSW4.8 kmh WSW 8.0 mph12.9 kmh 29.67 in1004.7 mb 0.00 in0.0 mm 0.00 in0.0 mm 0.13 in3.3 mm
02:30 PM 54.9°F12.7°C 52.0°F11.1°C 90% 2.0 mph SW3.2 kmh SW 4.0 mph6.4 kmh 29.68 in1005.1 mb 0.00 in0.0 mm 0.00 in0.0 mm 0.13 in3.3 mm
02:45 PM 54.7°F12.6°C 51.8°F11.0°C 90% 1.0 mph SW1.6 kmh SW 4.0 mph6.4 kmh 29.67 in1004.7 mb 0.00 in0.0 mm 0.00 in0.0 mm 0.13 in3.3 mm
03:00 PM 54.5°F12.5°C 51.9°F11.1°C 91% 2.0 mph SW3.2 kmh SW 6.0 mph9.7 kmh 29.67 in1004.7 mb 0.00 in0.0 mm 0.00 in0.0 mm 0.13 in3.3 mm
03:15 PM 54.7°F12.6°C 52.1°F11.2°C 91% 2.0 mph SW3.2 kmh SW 5.0 mph8.0 kmh 29.67 in1004.7 mb 0.00 in0.0 mm 0.00 in0.0 mm 0.13 in3.3 mm
03:30 PM 54.5°F12.5°C 51.6°F10.9°C 90% 4.0 mph S6.4 kmh S 13.0 mph20.9 kmh 29.67 in1004.7 mb 0.00 in0.0 mm 0.00 in0.0 mm 0.13 in3.3 mm
03:45 PM 54.0°F12.2°C 49.9°F9.9°C 86% 8.0 mph SSW12.9 kmh SSW 17.0 mph27.4 kmh 29.68 in1005.1 mb 0.00 in0.0 mm 0.00 in0.0 mm 0.13 in3.3 mm
04:00 PM 53.4°F11.9°C 49.0°F9.4°C 85% 8.0 mph S12.9 kmh S 14.0 mph22.5 kmh 29.69 in1005.4 mb 0.00 in0.0 mm 0.00 in0.0 mm 0.13 in3.3 mm
04:15 PM 53.1°F11.7°C 48.7°F9.3°C 85% 6.0 mph S9.7 kmh S 11.0 mph17.7 kmh 29.69 in1005.4 mb 0.00 in0.0 mm 0.00 in0.0 mm 0.13 in3.3 mm
04:30 PM 52.9°F11.6°C 48.5°F9.2°C 85% 5.0 mph S8.0 kmh S 10.0 mph16.1 kmh 29.69 in1005.4 mb 0.00 in0.0 mm 0.00 in0.0 mm 0.13 in3.3 mm
04:45 PM 52.3°F11.3°C 48.3°F9.1°C 86% 4.0 mph S6.4 kmh S 10.0 mph16.1 kmh 29.68 in1005.1 mb 0.00 in0.0 mm 0.00 in0.0 mm 0.13 in3.3 mm
05:00 PM 52.0°F11.1°C 47.9°F8.8°C 86% 5.0 mph S8.0 kmh S 10.0 mph16.1 kmh 29.68 in1005.1 mb 0.00 in0.0 mm 0.00 in0.0 mm 0.13 in3.3 mm
05:15 PM 51.6°F10.9°C 47.9°F8.8°C 87% 4.0 mph SSE6.4 kmh SSE 8.0 mph12.9 kmh 29.68 in1005.1 mb 0.00 in0.0 mm 0.00 in0.0 mm 0.13 in3.3 mm
05:30 PM 51.3°F10.7°C 47.5°F8.6°C 87% 3.0 mph SSE4.8 kmh SSE 7.0 mph11.3 kmh 29.68 in1005.1 mb 0.00 in0.0 mm 0.00 in0.0 mm 0.13 in3.3 mm
05:45 PM 51.1°F10.6°C 47.3°F8.5°C 87% 4.0 mph SE6.4 kmh SE 6.0 mph9.7 kmh 29.67 in1004.7 mb 0.00 in0.0 mm 0.00 in0.0 mm 0.13 in3.3 mm
06:00 PM 50.7°F10.4°C 47.3°F8.5°C 88% 3.0 mph SE4.8 kmh SE 5.0 mph8.0 kmh 29.67 in1004.7 mb 0.00 in0.0 mm 0.00 in0.0 mm 0.13 in3.3 mm
06:15 PM 50.5°F10.3°C 47.1°F8.4°C 88% 3.0 mph SE4.8 kmh SE 5.0 mph8.0 kmh 29.66 in1004.4 mb 0.00 in0.0 mm 0.00 in0.0 mm 0.13 in3.3 mm
06:30 PM 50.4°F10.2°C 46.9°F8.3°C 88% 3.0 mph SE4.8 kmh SE 9.0 mph14.5 kmh 29.65 in1004.1 mb 0.00 in0.0 mm 0.00 in0.0 mm 0.13 in3.3 mm
06:45 PM 50.5°F10.3°C 46.8°F8.2°C 87% 5.0 mph SE8.0 kmh SE 8.0 mph12.9 kmh 29.64 in1003.7 mb 0.00 in0.0 mm 0.00 in0.0 mm 0.13 in3.3 mm
07:00 PM 50.9°F10.5°C 46.6°F8.1°C 85% 6.0 mph SE9.7 kmh SE 12.0 mph19.3 kmh 29.63 in1003.4 mb 0.00 in0.0 mm 0.00 in0.0 mm 0.13 in3.3 mm
07:15 PM 51.3°F10.7°C 46.9°F8.3°C 85% 6.0 mph SE9.7 kmh SE 11.0 mph17.7 kmh 29.62 in1003.0 mb 0.00 in0.0 mm 0.00 in0.0 mm 0.13 in3.3 mm
07:30 PM 51.4°F10.8°C 46.8°F8.2°C 84% 7.0 mph SE11.3 kmh SE 14.0 mph22.5 kmh 29.61 in1002.7 mb 0.00 in0.0 mm 0.00 in0.0 mm 0.13 in3.3 mm
07:45 PM 52.0°F11.1°C 47.0°F8.3°C 83% 9.0 mph SE14.5 kmh SE 16.0 mph25.7 kmh 29.60 in1002.4 mb 0.00 in0.0 mm 0.00 in0.0 mm 0.13 in3.3 mm
08:00 PM 52.2°F11.2°C 47.2°F8.4°C 83% 9.0 mph SE14.5 kmh SE 17.0 mph27.4 kmh 29.60 in1002.4 mb 0.01 in0.3 mm 0.01 in0.3 mm 0.14 in3.6 mm
08:15 PM 52.3°F11.3°C 47.6°F8.7°C 84% 10.0 mph SE16.1 kmh SE 18.0 mph29.0 kmh 29.58 in1001.7 mb 0.01 in0.3 mm 0.00 in0.0 mm 0.14 in3.6 mm
08:30 PM 52.0°F11.1°C 47.9°F8.8°C 86% 9.0 mph SE14.5 kmh SE 15.0 mph24.1 kmh 29.58 in1001.7 mb 0.01 in0.3 mm 0.00 in0.0 mm 0.14 in3.6 mm
08:45 PM 51.8°F11.0°C 48.4°F9.1°C 88% 9.0 mph SE14.5 kmh SE 18.0 mph29.0 kmh 29.57 in1001.4 mb 0.01 in0.3 mm 0.00 in0.0 mm 0.14 in3.6 mm
09:00 PM 52.2°F11.2°C 48.7°F9.3°C 88% 8.0 mph SE12.9 kmh SE 15.0 mph24.1 kmh 29.57 in1001.4 mb 0.00 in0.0 mm 0.00 in0.0 mm 0.14 in3.6 mm
09:15 PM 52.5°F11.4°C 49.4°F9.7°C 89% 9.0 mph SE14.5 kmh SE 18.0 mph29.0 kmh 29.56 in1001.0 mb 0.00 in0.0 mm 0.00 in0.0 mm 0.14 in3.6 mm
09:30 PM 52.5°F11.4°C 49.4°F9.7°C 89% 9.0 mph SE14.5 kmh SE 18.0 mph29.0 kmh 29.54 in1000.3 mb 0.00 in0.0 mm 0.00 in0.0 mm 0.14 in3.6 mm
09:45 PM 52.9°F11.6°C 49.7°F9.8°C 89% 10.0 mph SE16.1 kmh SE 19.0 mph30.6 kmh 29.53 in1000.0 mb 0.00 in0.0 mm 0.00 in0.0 mm 0.14 in3.6 mm
10:00 PM 52.9°F11.6°C 50.0°F10.0°C 90% 11.0 mph SE17.7 kmh SE 21.0 mph33.8 kmh 29.52 in999.7 mb 0.00 in0.0 mm 0.00 in0.0 mm 0.14 in3.6 mm
10:15 PM 52.9°F11.6°C 50.0°F10.0°C 90% 9.0 mph SE14.5 kmh SE 16.0 mph25.7 kmh 29.51 in999.3 mb 0.00 in0.0 mm 0.00 in0.0 mm 0.14 in3.6 mm
10:30 PM 53.2°F11.8°C 50.4°F10.2°C 90% 11.0 mph SSE17.7 kmh SSE 22.0 mph35.4 kmh 29.49 in998.6 mb 0.00 in0.0 mm 0.00 in0.0 mm 0.14 in3.6 mm
10:45 PM 53.6°F12.0°C 50.7°F10.4°C 90% 12.0 mph SE19.3 kmh SE 23.0 mph37.0 kmh 29.48 in998.3 mb 0.00 in0.0 mm 0.00 in0.0 mm 0.14 in3.6 mm
11:00 PM 54.0°F12.2°C 51.1°F10.6°C 90% 12.0 mph SSE19.3 kmh SSE 23.0 mph37.0 kmh 29.48 in998.3 mb 0.00 in0.0 mm 0.00 in0.0 mm 0.13 in3.3 mm
11:15 PM 54.0°F12.2°C 51.4°F10.8°C 91% 10.0 mph SE16.1 kmh SE 17.0 mph27.4 kmh 29.47 in998.0 mb 0.01 in0.3 mm 0.04 in1.0 mm 0.01 in0.3 mm
11:30 PM 54.1°F12.3°C 51.6°F10.9°C 91% 11.0 mph SE17.7 kmh SE 21.0 mph33.8 kmh 29.46 in997.6 mb 0.01 in0.3 mm 0.00 in0.0 mm 0.01 in0.3 mm
11:45 PM 54.5°F12.5°C 51.9°F11.1°C 91% 13.0 mph SSE20.9 kmh SSE 24.0 mph38.6 kmh 29.45 in997.3 mb 0.01 in0.3 mm 0.00 in0.0 mm 0.01 in0.3 mm